METAR

TAF

 




Curitiba / Bacacheri, PR - SBBI


20 de Agosto de 2014 às 22:00 (UTC)


Tempo:

Céu sem restrições operacionais para aviação

Temperatura:

16ºC

Umidade Relativa:

68%

Localização:
Ajuste do Altímetro:

1025 hPa

Visibilidade Horizontal Predominante:

Igual ou acima de 10 Km

Direção e Velocidade do Vento:

110° 9,26 Km/h


Observação Meteorológica:

METAR SBBI 202200Z 11005KT CAVOK 16/10 Q1025=